createdAt,value
2023-01-19T00:01:04.778Z,13.73
2023-01-19T00:03:37.182Z,14.00
2023-01-19T00:06:06.946Z,13.80
2023-01-19T00:08:35.940Z,14.45
2023-01-19T00:11:04.553Z,13.75
2023-01-19T00:13:33.257Z,14.43
2023-01-19T00:16:01.504Z,14.23
2023-01-19T00:18:30.242Z,14.13
2023-01-19T00:20:59.865Z,13.38
2023-01-19T00:23:28.139Z,13.45
2023-01-19T00:25:56.738Z,13.77
2023-01-19T00:28:24.916Z,14.00
2023-01-19T00:30:53.192Z,12.80
2023-01-19T00:33:21.734Z,13.10
2023-01-19T00:35:52.795Z,13.15
2023-01-19T00:38:23.265Z,12.82
2023-01-19T00:40:51.496Z,12.20
2023-01-19T00:43:18.678Z,13.88
2023-01-19T00:45:47.787Z,12.75
2023-01-19T00:48:15.956Z,13.52
2023-01-19T00:50:44.291Z,13.68
2023-01-19T00:53:12.829Z,13.02
2023-01-19T00:55:42.414Z,13.27
2023-01-19T00:58:10.933Z,12.95
2023-01-19T01:00:39.377Z,12.63
2023-01-19T01:03:07.693Z,12.93
2023-01-19T01:05:36.045Z,13.13
2023-01-19T01:08:04.550Z,13.07
2023-01-19T01:10:32.789Z,13.20
2023-01-19T01:13:21.019Z,12.52
2023-01-19T01:15:52.584Z,12.30
2023-01-19T01:18:21.688Z,12.70
2023-01-19T01:20:50.074Z,12.10
2023-01-19T01:23:23.219Z,12.15
2023-01-19T01:25:51.641Z,12.43
2023-01-19T01:28:21.684Z,12.65
2023-01-19T01:30:54.190Z,13.68
2023-01-19T01:33:39.996Z,12.63
2023-01-19T01:36:11.456Z,12.45
2023-01-19T01:38:40.155Z,12.48
2023-01-19T01:41:08.481Z,13.27
2023-01-19T01:43:50.501Z,13.07
2023-01-19T01:46:19.971Z,12.85
2023-01-19T01:48:55.389Z,13.20
2023-01-19T01:51:28.116Z,13.98
2023-01-19T01:54:12.962Z,14.27
2023-01-19T01:56:43.763Z,14.13
2023-01-19T01:59:25.923Z,13.95
2023-01-19T02:02:14.394Z,13.85
2023-01-19T02:04:48.782Z,13.68
2023-01-19T02:07:39.454Z,14.15
2023-01-19T02:10:25.823Z,14.23
2023-01-19T02:13:11.663Z,13.18
2023-01-19T02:15:41.686Z,13.27
2023-01-19T02:18:10.631Z,13.18
2023-01-19T02:20:40.676Z,12.90
2023-01-19T02:23:18.624Z,13.82
2023-01-19T02:25:49.198Z,12.77
2023-01-19T02:28:18.761Z,13.55
2023-01-19T02:30:47.422Z,12.90
2023-01-19T02:33:15.709Z,12.68
2023-01-19T02:35:45.883Z,11.98
2023-01-19T02:38:16.454Z,12.27
2023-01-19T02:40:46.931Z,11.55
2023-01-19T02:43:18.986Z,13.23
2023-01-19T02:45:48.559Z,12.38
2023-01-19T02:48:19.657Z,11.75
2023-01-19T02:50:50.976Z,13.05
2023-01-19T02:53:32.428Z,13.10
2023-01-19T02:56:11.350Z,12.98
2023-01-19T02:58:46.849Z,12.52
2023-01-19T03:01:23.015Z,12.43
2023-01-19T03:03:59.420Z,12.07
2023-01-19T03:06:39.289Z,12.15
2023-01-19T03:09:13.718Z,11.70
2023-01-19T03:11:48.579Z,12.60
2023-01-19T03:14:24.612Z,13.10
2023-01-19T03:16:56.112Z,12.93
2023-01-19T03:19:28.668Z,13.93
2023-01-19T03:22:00.423Z,12.98
2023-01-19T03:24:34.464Z,13.13
2023-01-19T03:27:08.281Z,12.63
2023-01-19T03:29:40.821Z,13.23
2023-01-19T03:32:13.607Z,13.65
2023-01-19T03:34:44.152Z,13.23
2023-01-19T03:37:15.271Z,13.85
2023-01-19T03:39:43.814Z,14.05
2023-01-19T03:42:15.448Z,14.05
2023-01-19T03:44:46.689Z,13.93
2023-01-19T03:47:16.392Z,14.23
2023-01-19T03:49:46.920Z,13.80
2023-01-19T03:52:15.130Z,14.60
2023-01-19T03:54:43.843Z,13.60
2023-01-19T03:57:12.944Z,13.65
2023-01-19T03:59:41.273Z,13.32
2023-01-19T04:02:11.240Z,12.80
2023-01-19T04:04:40.149Z,12.85
2023-01-19T04:07:10.964Z,13.00
2023-01-19T04:09:39.387Z,13.45
2023-01-19T04:12:07.967Z,13.18
2023-01-19T04:14:36.354Z,12.38
2023-01-19T04:17:04.759Z,14.10
2023-01-19T04:19:34.356Z,13.05
2023-01-19T04:22:02.822Z,14.43
2023-01-19T04:24:31.195Z,13.70
2023-01-19T04:26:59.458Z,13.20
2023-01-19T04:29:27.964Z,13.55
2023-01-19T04:31:56.535Z,13.27
2023-01-19T04:34:24.722Z,13.48
2023-01-19T04:36:56.063Z,13.98
2023-01-19T04:39:24.579Z,14.55
2023-01-19T04:41:52.944Z,14.35
2023-01-19T04:44:21.440Z,14.38
2023-01-19T04:46:50.047Z,14.32
2023-01-19T04:49:18.289Z,13.35
2023-01-19T04:51:46.775Z,13.60
2023-01-19T04:54:16.637Z,13.05
2023-01-19T04:56:44.977Z,13.63
2023-01-19T04:59:13.367Z,14.02
2023-01-19T05:01:41.831Z,13.75
2023-01-19T05:04:10.253Z,13.82
2023-01-19T05:06:38.557Z,13.38
2023-01-19T05:09:08.127Z,13.50
2023-01-19T05:11:37.967Z,13.02
2023-01-19T05:14:06.254Z,13.52
2023-01-19T05:16:35.288Z,14.50
2023-01-19T05:19:03.663Z,14.13
2023-01-19T05:21:31.923Z,13.93
2023-01-19T05:24:00.569Z,15.10
2023-01-19T05:26:29.107Z,14.68
2023-01-19T05:28:58.757Z,14.73
2023-01-19T05:31:27.220Z,14.55
2023-01-19T05:33:55.665Z,13.98
2023-01-19T05:36:23.860Z,15.20
2023-01-19T05:38:52.269Z,13.57
2023-01-19T05:41:20.678Z,15.43
2023-01-19T05:43:48.845Z,14.38
2023-01-19T05:46:18.537Z,15.40
2023-01-19T05:48:46.972Z,14.45
2023-01-19T05:51:15.288Z,14.18
2023-01-19T05:53:43.683Z,14.50
2023-01-19T05:56:12.997Z,15.43
2023-01-19T05:58:41.354Z,14.82
2023-01-19T06:01:11.599Z,15.98
2023-01-19T06:03:41.469Z,15.57
2023-01-19T06:06:09.754Z,15.25
2023-01-19T06:08:38.081Z,15.02
2023-01-19T06:11:07.682Z,15.10
2023-01-19T06:13:36.004Z,15.90
2023-01-19T06:16:05.049Z,16.52
2023-01-19T06:18:33.518Z,16.40
2023-01-19T06:21:06.469Z,16.25
2023-01-19T06:23:36.063Z,14.95
2023-01-19T06:26:04.906Z,15.70
2023-01-19T06:28:33.477Z,15.43
2023-01-19T06:31:01.921Z,16.13
2023-01-19T06:33:30.286Z,16.35
2023-01-19T06:35:59.148Z,16.38
2023-01-19T06:38:29.518Z,15.95
2023-01-19T06:40:59.700Z,16.90
2023-01-19T06:43:28.345Z,17.10
2023-01-19T06:45:57.354Z,16.30
2023-01-19T06:48:25.902Z,16.77
2023-01-19T06:50:54.357Z,17.20
2023-01-19T06:53:22.608Z,15.75
2023-01-19T06:55:52.319Z,16.13
2023-01-19T06:58:21.040Z,16.50
2023-01-19T07:00:51.753Z,16.92
2023-01-19T07:03:22.292Z,16.45
2023-01-19T07:05:53.267Z,16.35
2023-01-19T07:08:21.803Z,15.63
2023-01-19T07:11:27.004Z,16.33
2023-01-19T07:13:41.139Z,16.33
2023-01-19T07:16:12.435Z,17.00
2023-01-19T07:18:41.796Z,16.45
2023-01-19T07:21:10.473Z,16.58
2023-01-19T07:23:38.718Z,16.98
2023-01-19T07:26:08.833Z,15.52
2023-01-19T07:28:37.204Z,17.85
2023-01-19T07:31:05.763Z,17.90
2023-01-19T07:33:34.223Z,15.88
2023-01-19T07:36:02.655Z,16.80
2023-01-19T07:38:30.909Z,17.70
2023-01-19T07:41:02.876Z,17.25
2023-01-19T07:43:33.206Z,15.80
2023-01-19T07:46:03.232Z,16.77
2023-01-19T07:48:31.695Z,16.30
2023-01-19T07:51:01.960Z,16.85
2023-01-19T07:53:30.437Z,16.15
2023-01-19T07:55:58.992Z,16.67
2023-01-19T07:58:27.843Z,16.90
2023-01-19T08:00:57.984Z,16.77
2023-01-19T08:03:26.318Z,17.63
2023-01-19T08:05:57.152Z,16.80
2023-01-19T08:08:25.626Z,18.70
2023-01-19T08:10:54.259Z,17.27
2023-01-19T08:13:22.830Z,18.05
2023-01-19T08:15:52.197Z,18.90
2023-01-19T08:18:22.434Z,17.85
2023-01-19T08:20:50.918Z,17.98
2023-01-19T08:23:19.783Z,16.75
2023-01-19T08:25:48.232Z,16.08
2023-01-19T08:28:18.374Z,14.88
2023-01-19T08:30:53.974Z,14.10
2023-01-19T08:33:25.681Z,13.70
2023-01-19T08:35:55.215Z,13.93
2023-01-19T08:38:24.816Z,12.98
2023-01-19T08:40:53.543Z,14.48
2023-01-19T08:43:21.830Z,13.65
2023-01-19T08:45:52.832Z,14.13
2023-01-19T08:48:24.223Z,13.98
2023-01-19T08:50:53.320Z,14.23
2023-01-19T08:53:23.624Z,14.35
2023-01-19T08:55:56.194Z,13.82
2023-01-19T08:58:24.871Z,13.18
2023-01-19T09:00:53.177Z,14.27
2023-01-19T09:03:23.959Z,14.45
2023-01-19T09:05:52.609Z,14.27
2023-01-19T09:08:20.792Z,17.55
2023-01-19T09:10:51.290Z,16.80
2023-01-19T09:13:20.982Z,16.77
2023-01-19T09:15:49.323Z,17.17
2023-01-19T09:18:20.340Z,17.88
2023-01-19T09:20:51.740Z,19.25
2023-01-19T09:23:22.861Z,18.17
2023-01-19T09:25:56.799Z,18.90
2023-01-19T09:28:25.309Z,19.60
2023-01-19T09:30:53.907Z,19.73
2023-01-19T09:33:22.762Z,19.83
2023-01-19T09:35:53.150Z,19.85
2023-01-19T09:38:22.525Z,20.33
2023-01-19T09:40:53.197Z,20.13
2023-01-19T09:43:34.154Z,20.02
2023-01-19T09:46:04.133Z,20.15
2023-01-19T09:48:44.057Z,20.77
2023-01-19T09:51:17.565Z,21.10
2023-01-19T09:53:54.484Z,23.02
2023-01-19T09:56:23.698Z,24.98
2023-01-19T09:58:52.842Z,23.50
2023-01-19T10:01:42.264Z,26.38
2023-01-19T10:04:28.927Z,27.10
2023-01-19T10:07:08.593Z,24.10
2023-01-19T10:09:47.700Z,28.98
2023-01-19T10:12:26.108Z,28.02
2023-01-19T10:15:04.312Z,25.67
2023-01-19T10:17:44.099Z,26.10
2023-01-19T10:20:19.158Z,26.65
2023-01-19T10:22:51.284Z,25.92
2023-01-19T10:25:23.823Z,26.73
2023-01-19T10:27:52.807Z,24.35
2023-01-19T10:30:24.776Z,26.05
2023-01-19T10:32:53.974Z,26.02
2023-01-19T10:35:25.219Z,24.23
2023-01-19T10:37:57.650Z,25.30
2023-01-19T10:40:34.467Z,23.05
2023-01-19T10:43:03.470Z,23.63
2023-01-19T10:45:33.656Z,24.15
2023-01-19T10:48:09.520Z,22.58
2023-01-19T10:50:40.705Z,24.42
2023-01-19T10:53:22.443Z,23.85
2023-01-19T10:56:13.009Z,22.98
2023-01-19T10:58:41.970Z,20.75
2023-01-19T11:01:19.152Z,21.25
2023-01-19T11:03:47.904Z,22.20
2023-01-19T11:06:30.017Z,22.85
2023-01-19T11:09:17.721Z,21.33
2023-01-19T11:11:49.126Z,20.77
2023-01-19T11:14:21.115Z,21.60
2023-01-19T11:16:52.552Z,21.55
2023-01-19T11:19:26.120Z,21.25
2023-01-19T11:24:25.623Z,20.85
2023-01-19T11:27:03.173Z,20.95
2023-01-19T11:29:32.203Z,21.63
2023-01-19T11:32:13.774Z,22.80
2023-01-19T11:34:42.063Z,22.10
2023-01-19T11:37:28.900Z,24.30
2023-01-19T11:40:00.181Z,23.10
2023-01-19T11:42:31.715Z,22.95
2023-01-19T11:45:05.252Z,22.55
2023-01-19T11:47:41.295Z,21.08
2023-01-19T11:50:17.145Z,20.67
2023-01-19T11:52:51.347Z,22.13
2023-01-19T11:55:26.066Z,22.58
2023-01-19T11:57:55.846Z,21.25
2023-01-19T12:00:29.766Z,19.38
2023-01-19T12:03:06.086Z,20.17
2023-01-19T12:05:37.740Z,20.15
2023-01-19T12:08:11.464Z,21.05
2023-01-19T12:13:22.145Z,20.65
2023-01-19T12:15:54.477Z,19.98
2023-01-19T12:18:25.682Z,21.75
2023-01-19T12:20:55.789Z,22.58
2023-01-19T12:23:32.688Z,22.85
2023-01-19T12:26:19.778Z,22.75
2023-01-19T12:28:50.005Z,22.27
2023-01-19T12:31:20.831Z,20.92
2023-01-19T12:33:49.779Z,22.85
2023-01-19T12:36:36.835Z,22.38
2023-01-19T12:39:07.432Z,22.48
2023-01-19T12:41:38.357Z,22.42
2023-01-19T12:44:27.745Z,22.92
2023-01-19T12:47:03.507Z,24.25
2023-01-19T12:49:35.507Z,23.83
2023-01-19T12:52:19.687Z,23.40
2023-01-19T12:54:56.235Z,22.50
2023-01-19T12:57:31.728Z,22.73
2023-01-19T13:00:01.705Z,23.42
2023-01-19T13:02:44.778Z,23.00
2023-01-19T13:05:50.485Z,22.63
2023-01-19T13:08:24.295Z,22.50
2023-01-19T13:11:25.827Z,22.33
2023-01-19T13:14:36.501Z,23.50
2023-01-19T13:17:28.140Z,21.95
2023-01-19T13:20:08.348Z,22.00
2023-01-19T13:23:13.981Z,22.90
2023-01-19T13:25:45.648Z,22.50
2023-01-19T13:28:17.240Z,23.05
2023-01-19T13:30:58.006Z,22.83
2023-01-19T13:33:29.381Z,23.90
2023-01-19T13:35:59.666Z,21.75
2023-01-19T13:38:32.950Z,22.77
2023-01-19T13:41:03.214Z,21.38
2023-01-19T13:43:37.507Z,21.73
2023-01-19T13:46:07.960Z,23.88
2023-01-19T13:48:36.583Z,22.38
2023-01-19T13:51:07.085Z,21.77
2023-01-19T13:53:36.825Z,22.80
2023-01-19T13:56:20.706Z,23.30
2023-01-19T14:01:44.358Z,21.83
2023-01-19T14:04:29.190Z,23.15
2023-01-19T14:06:59.881Z,24.02
2023-01-19T14:09:28.472Z,24.30
2023-01-19T14:12:09.748Z,25.08
2023-01-19T14:14:38.368Z,23.88
2023-01-19T14:17:23.971Z,24.08
2023-01-19T14:19:53.803Z,23.48
2023-01-19T14:22:22.126Z,23.73
2023-01-19T14:24:50.749Z,23.45
2023-01-19T14:27:22.813Z,22.70
2023-01-19T14:29:54.057Z,23.73
2023-01-19T14:32:24.841Z,24.25
2023-01-19T14:35:12.860Z,23.77
2023-01-19T14:37:48.799Z,24.20
2023-01-19T14:40:21.956Z,22.13
2023-01-19T14:42:53.581Z,23.70
2023-01-19T14:45:25.079Z,23.55
2023-01-19T14:47:59.723Z,22.88
2023-01-19T14:50:31.406Z,23.35
2023-01-19T14:53:02.336Z,22.73
2023-01-19T14:55:36.908Z,24.83
2023-01-19T14:58:11.565Z,23.92
2023-01-19T15:00:40.324Z,24.52
2023-01-19T15:03:10.858Z,24.85
2023-01-19T15:05:39.872Z,23.20
2023-01-19T15:08:08.798Z,24.30
2023-01-19T15:10:37.758Z,23.95
2023-01-19T15:13:06.034Z,23.58
2023-01-19T15:15:36.149Z,23.60
2023-01-19T15:18:08.020Z,24.45
2023-01-19T15:20:38.275Z,23.42
2023-01-19T15:23:06.521Z,23.85
2023-01-19T15:25:34.907Z,25.10
2023-01-19T15:28:04.208Z,24.65
2023-01-19T15:30:33.558Z,24.60
2023-01-19T15:33:02.619Z,23.45
2023-01-19T15:35:31.338Z,27.55
2023-01-19T15:38:00.992Z,24.73
2023-01-19T15:40:29.482Z,23.55
2023-01-19T15:42:57.726Z,25.60
2023-01-19T15:45:37.711Z,23.88
2023-01-19T15:48:08.582Z,27.58
2023-01-19T15:50:39.092Z,23.10
2023-01-19T15:53:13.055Z,23.98
2023-01-19T15:55:41.557Z,22.02
2023-01-19T15:58:10.564Z,21.98
2023-01-19T16:00:39.575Z,22.40
2023-01-19T16:03:07.972Z,25.13
2023-01-19T16:05:43.854Z,23.80
2023-01-19T16:08:13.816Z,22.15
2023-01-19T16:10:43.105Z,22.13
2023-01-19T16:13:12.588Z,21.80
2023-01-19T16:15:42.436Z,22.02
2023-01-19T16:18:10.885Z,20.90
2023-01-19T16:20:39.134Z,21.02
2023-01-19T16:23:15.655Z,21.55
2023-01-19T16:25:45.596Z,20.48
2023-01-19T16:28:14.004Z,21.85
2023-01-19T16:30:42.313Z,22.67
2023-01-19T16:33:13.539Z,22.08
2023-01-19T16:35:41.853Z,22.95
2023-01-19T16:38:10.353Z,23.92
2023-01-19T16:40:38.852Z,23.73
2023-01-19T16:43:08.431Z,23.08
2023-01-19T16:45:37.947Z,23.33
2023-01-19T16:48:06.821Z,21.95
2023-01-19T16:50:35.087Z,23.73
2023-01-19T16:53:03.309Z,23.35
2023-01-19T16:55:31.835Z,22.27
2023-01-19T16:58:00.261Z,22.92
2023-01-19T17:00:29.982Z,21.98
2023-01-19T17:02:58.543Z,22.98
2023-01-19T17:05:27.092Z,22.17
2023-01-19T17:07:55.347Z,23.08
2023-01-19T17:10:23.876Z,21.65
2023-01-19T17:12:52.293Z,22.75
2023-01-19T17:15:20.929Z,23.52
2023-01-19T17:17:51.016Z,23.05
2023-01-19T17:20:19.461Z,24.70
2023-01-19T17:22:47.757Z,22.90
2023-01-19T17:25:16.229Z,23.60
2023-01-19T17:27:44.654Z,24.67
2023-01-19T17:30:13.907Z,23.05
2023-01-19T17:32:43.020Z,24.98
2023-01-19T17:35:12.928Z,23.98
2023-01-19T17:37:41.165Z,32.28
2023-01-19T17:40:11.259Z,28.50
2023-01-19T17:42:41.954Z,24.50
2023-01-19T17:45:11.194Z,26.67
2023-01-19T17:47:39.661Z,25.83
2023-01-19T17:50:08.506Z,26.33
2023-01-19T17:52:38.711Z,26.98
2023-01-19T17:55:07.866Z,27.38
2023-01-19T17:57:36.211Z,29.35
2023-01-19T18:00:05.123Z,31.85
2023-01-19T18:02:34.477Z,31.58
2023-01-19T18:05:03.376Z,29.88
2023-01-19T18:07:32.010Z,29.65
2023-01-19T18:10:01.689Z,29.70
2023-01-19T18:12:30.277Z,34.05
2023-01-19T18:14:58.510Z,31.10
2023-01-19T18:17:26.765Z,31.60
2023-01-19T18:19:55.526Z,30.45
2023-01-19T18:22:23.926Z,29.23
2023-01-19T18:24:52.134Z,28.90
2023-01-19T18:27:22.134Z,30.23
2023-01-19T18:29:50.287Z,29.55
2023-01-19T18:32:18.532Z,30.15
2023-01-19T18:34:47.066Z,28.67
2023-01-19T18:37:15.352Z,28.50
2023-01-19T18:39:43.544Z,29.40
2023-01-19T18:42:12.219Z,31.50
2023-01-19T18:44:41.858Z,30.13
2023-01-19T18:47:10.196Z,30.35
2023-01-19T18:49:38.585Z,29.13
2023-01-19T18:52:07.049Z,30.33
2023-01-19T18:54:35.249Z,27.95
2023-01-19T18:57:03.699Z,29.70
2023-01-19T18:59:31.984Z,30.17
2023-01-19T19:02:01.696Z,30.33
2023-01-19T19:04:30.272Z,28.88
2023-01-19T19:06:58.510Z,27.50
2023-01-19T19:09:26.764Z,27.45
2023-01-19T19:11:55.018Z,29.63
2023-01-19T19:14:23.302Z,30.38
2023-01-19T19:16:51.834Z,29.58
2023-01-19T19:19:21.547Z,28.17
2023-01-19T19:21:52.219Z,29.27
2023-01-19T19:24:20.604Z,28.20
2023-01-19T19:26:48.883Z,28.63
2023-01-19T19:29:17.261Z,29.00
2023-01-19T19:31:46.197Z,30.27
2023-01-19T19:34:14.487Z,29.73
2023-01-19T19:36:44.275Z,29.60
2023-01-19T19:39:12.605Z,30.50
2023-01-19T19:41:42.375Z,30.13
2023-01-19T19:44:12.991Z,31.58
2023-01-19T19:46:42.019Z,32.10
2023-01-19T19:49:10.531Z,30.52
2023-01-19T19:51:38.920Z,31.90
2023-01-19T19:54:08.551Z,36.30
2023-01-19T19:56:36.752Z,36.13
2023-01-19T19:59:05.187Z,38.13
2023-01-19T20:01:34.172Z,34.95
2023-01-19T20:04:07.318Z,35.97
2023-01-19T20:06:38.721Z,34.28
2023-01-19T20:09:10.349Z,32.55
2023-01-19T20:11:38.741Z,33.08
2023-01-19T20:14:07.974Z,29.67
2023-01-19T20:16:36.852Z,26.15
2023-01-19T20:19:05.629Z,27.60
2023-01-19T20:21:35.759Z,27.95
2023-01-19T20:24:06.235Z,27.50
2023-01-19T20:26:40.273Z,27.13
2023-01-19T20:29:10.424Z,27.42
2023-01-19T20:31:41.476Z,26.70
2023-01-19T20:34:11.705Z,27.50
2023-01-19T20:36:41.272Z,27.05
2023-01-19T20:39:11.203Z,27.48
2023-01-19T20:41:45.152Z,28.55
2023-01-19T20:44:14.309Z,27.48
2023-01-19T20:46:42.627Z,25.85
2023-01-19T20:49:11.173Z,26.30
2023-01-19T20:51:43.456Z,26.85
2023-01-19T20:54:12.024Z,25.88
2023-01-19T20:56:42.548Z,25.73
2023-01-19T20:59:11.711Z,25.08
2023-01-19T21:01:40.992Z,26.17
2023-01-19T21:04:10.327Z,25.63
2023-01-19T21:06:39.279Z,25.35
2023-01-19T21:09:08.574Z,25.13
2023-01-19T21:11:37.944Z,24.85
2023-01-19T21:14:08.593Z,26.58
2023-01-19T21:16:37.811Z,24.73
2023-01-19T21:19:06.796Z,26.48
2023-01-19T21:21:35.278Z,24.45
2023-01-19T21:24:04.230Z,26.00
2023-01-19T21:26:33.700Z,27.35
2023-01-19T21:29:03.588Z,27.85
2023-01-19T21:31:33.407Z,27.40
2023-01-19T21:34:01.918Z,27.05
2023-01-19T21:36:30.156Z,26.20
2023-01-19T21:39:00.896Z,25.58
2023-01-19T21:41:31.186Z,25.10
2023-01-19T21:44:01.094Z,26.23
2023-01-19T21:46:32.247Z,24.83
2023-01-19T21:49:03.791Z,25.20
2023-01-19T21:51:34.872Z,25.70
2023-01-19T21:54:04.453Z,24.55
2023-01-19T21:56:32.822Z,23.77
2023-01-19T21:59:02.451Z,24.33
2023-01-19T22:01:31.008Z,23.63
2023-01-19T22:04:01.393Z,24.55
2023-01-19T22:06:30.504Z,25.45
2023-01-19T22:09:00.798Z,26.10
2023-01-19T22:11:30.141Z,25.65
2023-01-19T22:13:59.913Z,25.63
2023-01-19T22:16:28.905Z,24.80
2023-01-19T22:18:59.673Z,26.75
2023-01-19T22:21:31.301Z,25.73
2023-01-19T22:24:01.815Z,25.30
2023-01-19T22:26:31.154Z,26.15
2023-01-19T22:29:00.864Z,26.27
2023-01-19T22:31:30.650Z,25.10
2023-01-19T22:33:59.795Z,27.23
2023-01-19T22:36:31.480Z,27.38
2023-01-19T22:39:01.529Z,26.02
2023-01-19T22:41:31.978Z,25.98
2023-01-19T22:44:03.479Z,25.80
2023-01-19T22:46:33.562Z,27.23
2023-01-19T22:49:02.033Z,26.80
2023-01-19T22:51:32.976Z,26.77
2023-01-19T22:54:01.689Z,26.75
2023-01-19T22:56:31.619Z,26.30
2023-01-19T22:59:00.535Z,26.63
2023-01-19T23:01:30.329Z,26.00
2023-01-19T23:03:58.646Z,26.33
2023-01-19T23:06:28.695Z,26.48
2023-01-19T23:09:01.178Z,26.38
2023-01-19T23:11:31.317Z,26.75
2023-01-19T23:14:00.205Z,26.02
2023-01-19T23:16:28.532Z,27.75
2023-01-19T23:18:58.509Z,26.67
2023-01-19T23:21:28.991Z,27.63
2023-01-19T23:24:00.177Z,27.25
2023-01-19T23:26:30.808Z,28.02
2023-01-19T23:29:02.311Z,27.92
2023-01-19T23:31:32.363Z,27.38
2023-01-19T23:34:02.567Z,27.30
2023-01-19T23:36:32.603Z,27.58
2023-01-19T23:39:04.826Z,27.45
2023-01-19T23:41:34.839Z,26.92
2023-01-19T23:44:03.635Z,27.25
2023-01-19T23:46:32.578Z,26.90
2023-01-19T23:49:01.071Z,26.85
2023-01-19T23:51:31.046Z,28.15
2023-01-19T23:54:01.957Z,27.40
2023-01-19T23:56:32.183Z,28.92
2023-01-19T23:59:02.462Z,27.60
